Arbovale, West Virginia
Current Conditions -  °F | °C
As of 9:51 PM on Thursday 18 Dec 2014 (Local Time) from KEKN Reporting Station
Overcast Overcast  
Wind Chill: 21°   Ceiling: 1600
Heat Index: 26°   Visibility: 10mi
Dew Point: 22°   Wind: 5mph
Humidity: 84%   Direction: 330°NNW
Pressure: 30.12"   Gusts: NA
Location:  38.44°N, 79.82°W
Report Text: KEKN 190251Z AUTO 33004KT 10SM OVC016 M03/M06 A3012 RMK AO2 SLP229 60000 T10331056 55002 TSNO
Loading
Personal Weather Stations






























Interactive Weather Map New forecast layout! Learn more

10-Day Weather Forecast

Advertisements
Track Severe Weather on mobile